CheckWX is a tool to help pilots better visualize weather data.  It is not intended as a substitute for an official pre-flight weather briefing.

18:05:57 UTC

K0CO METAR
Empire
Empire, Colorado, USA
Current

25 mins ago

K0CO 241741Z AUTO 31008KT 261V331 BKN005 BKN013 OVC030 M02/M08 A3031 RMK AO2 PWINO
Observed
Apr-24 @ 17:41 UTC
Wind
  • 310° at 8 KTS
Visibility
Cloud Levels
  • Broken at 500' AGL
  • Broken at 1,300' AGL
  • Overcast at 3,000' AGL
Temperature
-2°C / 28°F
Dewpoint
-8°C / 18°F
Humidity
64%
Altimeter
30.31" Hg
Pressure
1026.42 hPa
Previous

42 mins ago

K0CO 241724Z AUTO 30012KT SCT002 BKN010 OVC035 M02/M08 A3031 RMK AO2 PWINO
Observed
Apr-24 @ 17:24 UTC
Wind
  • 300° at 12 KTS
Visibility
Cloud Levels
  • Scattered at 200' AGL
  • Broken at 1,000' AGL
  • Overcast at 3,500' AGL
Temperature
-2°C / 28°F
Dewpoint
-8°C / 18°F
Humidity
64%
Altimeter
30.31" Hg
Pressure
1026.42 hPa
Previous

60 mins ago

K0CO 241706Z AUTO 29013KT BKN002 OVC025 M03/M09 A3030 RMK AO2 PWINO
Observed
Apr-24 @ 17:06 UTC
Wind
  • 290° at 13 KTS
Visibility
Cloud Levels
  • Broken at 200' AGL
  • Overcast at 2,500' AGL
Temperature
-3°C / 27°F
Dewpoint
-9°C / 16°F
Humidity
64%
Altimeter
30.3" Hg
Pressure
1026.12 hPa